sensor_id;sensor_type;location;lat;lon;timestamp;temperature;humidity
1447;DHT22;717;51.522;7.266;2024-01-30T00:00:48;13.60;99.90
1447;DHT22;717;51.522;7.266;2024-01-30T00:03:21;13.60;99.90
1447;DHT22;717;51.522;7.266;2024-01-30T00:05:51;13.60;99.90
1447;DHT22;717;51.522;7.266;2024-01-30T00:08:24;13.60;99.90
1447;DHT22;717;51.522;7.266;2024-01-30T00:10:54;13.50;99.90
1447;DHT22;717;51.522;7.266;2024-01-30T00:13:24;13.50;99.90
1447;DHT22;717;51.522;7.266;2024-01-30T00:15:54;13.50;99.90
1447;DHT22;717;51.522;7.266;2024-01-30T00:18:26;13.50;99.90
1447;DHT22;717;51.522;7.266;2024-01-30T00:20:56;13.50;99.90
1447;DHT22;717;51.522;7.266;2024-01-30T00:23:26;13.50;99.90
1447;DHT22;717;51.522;7.266;2024-01-30T00:25:56;13.50;99.90
1447;DHT22;717;51.522;7.266;2024-01-30T00:28:26;13.50;99.90
1447;DHT22;717;51.522;7.266;2024-01-30T00:30:56;13.50;99.90
1447;DHT22;717;51.522;7.266;2024-01-30T00:33:28;13.50;99.90
1447;DHT22;717;51.522;7.266;2024-01-30T00:35:58;13.40;99.90
1447;DHT22;717;51.522;7.266;2024-01-30T00:38:29;13.40;99.90
1447;DHT22;717;51.522;7.266;2024-01-30T00:40:59;13.40;99.90
1447;DHT22;717;51.522;7.266;2024-01-30T00:43:29;13.40;99.90
1447;DHT22;717;51.522;7.266;2024-01-30T00:45:59;13.40;99.90
1447;DHT22;717;51.522;7.266;2024-01-30T00:48:33;13.40;99.90
1447;DHT22;717;51.522;7.266;2024-01-30T00:51:03;13.40;99.90
1447;DHT22;717;51.522;7.266;2024-01-30T00:53:33;13.30;99.90
1447;DHT22;717;51.522;7.266;2024-01-30T00:56:03;13.30;99.90
1447;DHT22;717;51.522;7.266;2024-01-30T00:58:34;13.30;99.90
1447;DHT22;717;51.522;7.266;2024-01-30T01:01:04;13.40;99.90
1447;DHT22;717;51.522;7.266;2024-01-30T01:03:37;13.40;99.90
1447;DHT22;717;51.522;7.266;2024-01-30T01:06:08;13.40;99.90
1447;DHT22;717;51.522;7.266;2024-01-30T01:08:38;13.30;99.90
1447;DHT22;717;51.522;7.266;2024-01-30T01:11:08;13.30;99.90
1447;DHT22;717;51.522;7.266;2024-01-30T01:13:38;13.40;99.90
1447;DHT22;717;51.522;7.266;2024-01-30T01:16:08;13.30;99.90
1447;DHT22;717;51.522;7.266;2024-01-30T01:18:41;13.30;99.90
1447;DHT22;717;51.522;7.266;2024-01-30T01:21:11;13.30;99.90
1447;DHT22;717;51.522;7.266;2024-01-30T01:23:41;13.30;99.90
1447;DHT22;717;51.522;7.266;2024-01-30T01:26:10;13.30;99.90
1447;DHT22;717;51.522;7.266;2024-01-30T01:28:41;13.30;99.90
1447;DHT22;717;51.522;7.266;2024-01-30T01:31:11;13.30;99.90
1447;DHT22;717;51.522;7.266;2024-01-30T01:33:43;13.30;99.90
1447;DHT22;717;51.522;7.266;2024-01-30T01:36:13;13.30;99.90
1447;DHT22;717;51.522;7.266;2024-01-30T01:38:43;13.30;99.90
1447;DHT22;717;51.522;7.266;2024-01-30T01:41:13;13.30;99.90
1447;DHT22;717;51.522;7.266;2024-01-30T01:43:43;13.30;99.90
1447;DHT22;717;51.522;7.266;2024-01-30T01:46:13;13.30;99.90
1447;DHT22;717;51.522;7.266;2024-01-30T01:48:46;13.30;99.90
1447;DHT22;717;51.522;7.266;2024-01-30T01:51:16;13.20;99.90
1447;DHT22;717;51.522;7.266;2024-01-30T01:53:46;13.30;99.90
1447;DHT22;717;51.522;7.266;2024-01-30T01:56:16;13.20;99.90
1447;DHT22;717;51.522;7.266;2024-01-30T01:58:47;13.20;99.90
1447;DHT22;717;51.522;7.266;2024-01-30T02:01:20;13.20;99.90
1447;DHT22;717;51.522;7.266;2024-01-30T02:03:53;13.30;99.90
1447;DHT22;717;51.522;7.266;2024-01-30T02:06:23;13.20;99.90
1447;DHT22;717;51.522;7.266;2024-01-30T02:08:53;13.20;99.90
1447;DHT22;717;51.522;7.266;2024-01-30T02:11:24;13.20;99.90
1447;DHT22;717;51.522;7.266;2024-01-30T02:13:54;13.20;99.90
1447;DHT22;717;51.522;7.266;2024-01-30T02:16:24;13.30;99.90
1447;DHT22;717;51.522;7.266;2024-01-30T02:18:57;13.30;99.90
1447;DHT22;717;51.522;7.266;2024-01-30T02:21:30;13.20;99.90
1447;DHT22;717;51.522;7.266;2024-01-30T02:24:01;13.20;99.90
1447;DHT22;717;51.522;7.266;2024-01-30T02:26:32;13.20;99.90
1447;DHT22;717;51.522;7.266;2024-01-30T02:29:02;13.30;99.90
1447;DHT22;717;51.522;7.266;2024-01-30T02:31:32;13.20;99.90
1447;DHT22;717;51.522;7.266;2024-01-30T02:34:02;13.20;99.90
1447;DHT22;717;51.522;7.266;2024-01-30T02:36:34;13.20;99.90
1447;DHT22;717;51.522;7.266;2024-01-30T02:39:04;13.20;99.90
1447;DHT22;717;51.522;7.266;2024-01-30T02:41:35;13.20;99.90
1447;DHT22;717;51.522;7.266;2024-01-30T02:44:04;13.20;99.90
1447;DHT22;717;51.522;7.266;2024-01-30T02:46:34;13.20;99.90
1447;DHT22;717;51.522;7.266;2024-01-30T02:49:04;13.20;99.90
1447;DHT22;717;51.522;7.266;2024-01-30T02:51:37;13.20;99.90
1447;DHT22;717;51.522;7.266;2024-01-30T02:54:07;13.20;99.90
1447;DHT22;717;51.522;7.266;2024-01-30T02:56:37;13.20;99.90
1447;DHT22;717;51.522;7.266;2024-01-30T02:59:07;13.20;99.90
1447;DHT22;717;51.522;7.266;2024-01-30T03:01:42;13.20;99.90
1447;DHT22;717;51.522;7.266;2024-01-30T03:04:14;13.20;99.90
1447;DHT22;717;51.522;7.266;2024-01-30T03:06:47;13.20;99.90
1447;DHT22;717;51.522;7.266;2024-01-30T03:09:17;13.20;99.90
1447;DHT22;717;51.522;7.266;2024-01-30T03:11:47;13.20;99.90
1447;DHT22;717;51.522;7.266;2024-01-30T03:14:17;13.20;99.90
1447;DHT22;717;51.522;7.266;2024-01-30T03:16:47;13.10;99.90
1447;DHT22;717;51.522;7.266;2024-01-30T03:19:17;13.10;99.90
1447;DHT22;717;51.522;7.266;2024-01-30T03:21:50;13.10;99.90
1447;DHT22;717;51.522;7.266;2024-01-30T03:24:20;13.10;99.90
1447;DHT22;717;51.522;7.266;2024-01-30T03:26:50;13.10;99.90
1447;DHT22;717;51.522;7.266;2024-01-30T03:29:20;13.10;99.90
1447;DHT22;717;51.522;7.266;2024-01-30T03:31:50;13.10;99.90
1447;DHT22;717;51.522;7.266;2024-01-30T03:34:20;13.10;99.90
1447;DHT22;717;51.522;7.266;2024-01-30T03:36:52;13.10;99.90
1447;DHT22;717;51.522;7.266;2024-01-30T03:39:23;13.10;99.90
1447;DHT22;717;51.522;7.266;2024-01-30T03:41:53;13.10;99.90
1447;DHT22;717;51.522;7.266;2024-01-30T03:44:23;13.10;99.90
1447;DHT22;717;51.522;7.266;2024-01-30T03:46:53;13.10;99.90
1447;DHT22;717;51.522;7.266;2024-01-30T03:49:23;13.10;99.90
1447;DHT22;717;51.522;7.266;2024-01-30T03:51:55;13.10;99.90
1447;DHT22;717;51.522;7.266;2024-01-30T03:54:25;13.10;99.90
1447;DHT22;717;51.522;7.266;2024-01-30T03:56:55;13.10;99.90
1447;DHT22;717;51.522;7.266;2024-01-30T03:59:25;13.10;99.90
1447;DHT22;717;51.522;7.266;2024-01-30T04:01:55;13.10;99.90
1447;DHT22;717;51.522;7.266;2024-01-30T04:04:25;13.20;99.90
1447;DHT22;717;51.522;7.266;2024-01-30T04:06:58;13.20;99.90
1447;DHT22;717;51.522;7.266;2024-01-30T04:09:28;13.20;99.90
1447;DHT22;717;51.522;7.266;2024-01-30T04:11:59;13.20;99.90
1447;DHT22;717;51.522;7.266;2024-01-30T04:14:30;13.20;99.90
1447;DHT22;717;51.522;7.266;2024-01-30T04:17:00;13.20;99.90
1447;DHT22;717;51.522;7.266;2024-01-30T04:19:30;13.20;99.90
1447;DHT22;717;51.522;7.266;2024-01-30T04:22:03;13.20;99.90
1447;DHT22;717;51.522;7.266;2024-01-30T04:24:33;13.20;99.90
1447;DHT22;717;51.522;7.266;2024-01-30T04:27:03;13.20;99.90
1447;DHT22;717;51.522;7.266;2024-01-30T04:29:33;13.20;99.90
1447;DHT22;717;51.522;7.266;2024-01-30T04:32:04;13.20;99.90
1447;DHT22;717;51.522;7.266;2024-01-30T04:34:34;13.20;99.90
1447;DHT22;717;51.522;7.266;2024-01-30T04:37:08;13.10;99.90
1447;DHT22;717;51.522;7.266;2024-01-30T04:39:38;13.10;99.90
1447;DHT22;717;51.522;7.266;2024-01-30T04:42:08;13.10;99.90
1447;DHT22;717;51.522;7.266;2024-01-30T04:44:38;13.10;99.90
1447;DHT22;717;51.522;7.266;2024-01-30T04:47:08;13.10;99.90
1447;DHT22;717;51.522;7.266;2024-01-30T04:49:39;13.10;99.90
1447;DHT22;717;51.522;7.266;2024-01-30T04:52:11;13.10;99.90
1447;DHT22;717;51.522;7.266;2024-01-30T04:54:42;13.10;99.90
1447;DHT22;717;51.522;7.266;2024-01-30T04:57:11;13.10;99.90
1447;DHT22;717;51.522;7.266;2024-01-30T04:59:41;13.10;99.90
1447;DHT22;717;51.522;7.266;2024-01-30T05:02:11;13.10;99.90
1447;DHT22;717;51.522;7.266;2024-01-30T05:04:41;13.10;99.90
1447;DHT22;717;51.522;7.266;2024-01-30T05:07:14;13.10;99.90
1447;DHT22;717;51.522;7.266;2024-01-30T05:09:44;13.10;99.90
1447;DHT22;717;51.522;7.266;2024-01-30T05:12:14;13.10;99.90
1447;DHT22;717;51.522;7.266;2024-01-30T05:14:44;13.10;99.90
1447;DHT22;717;51.522;7.266;2024-01-30T05:17:14;13.10;99.90
1447;DHT22;717;51.522;7.266;2024-01-30T05:19:44;13.10;99.90
1447;DHT22;717;51.522;7.266;2024-01-30T05:22:17;13.10;99.90
1447;DHT22;717;51.522;7.266;2024-01-30T05:24:47;13.10;99.90
1447;DHT22;717;51.522;7.266;2024-01-30T05:27:17;13.10;99.90
1447;DHT22;717;51.522;7.266;2024-01-30T05:29:47;13.10;99.90
1447;DHT22;717;51.522;7.266;2024-01-30T05:32:17;13.10;99.90
1447;DHT22;717;51.522;7.266;2024-01-30T05:34:47;13.20;99.90
1447;DHT22;717;51.522;7.266;2024-01-30T05:37:20;13.20;99.90
1447;DHT22;717;51.522;7.266;2024-01-30T05:39:50;13.10;99.90
1447;DHT22;717;51.522;7.266;2024-01-30T05:42:20;13.10;99.90
1447;DHT22;717;51.522;7.266;2024-01-30T05:44:50;13.10;99.90
1447;DHT22;717;51.522;7.266;2024-01-30T05:47:20;13.10;99.90
1447;DHT22;717;51.522;7.266;2024-01-30T05:49:50;13.10;99.90
1447;DHT22;717;51.522;7.266;2024-01-30T05:52:22;13.10;99.90
1447;DHT22;717;51.522;7.266;2024-01-30T05:54:52;13.10;99.90
1447;DHT22;717;51.522;7.266;2024-01-30T05:57:22;13.10;99.90
1447;DHT22;717;51.522;7.266;2024-01-30T05:59:52;13.10;99.90
1447;DHT22;717;51.522;7.266;2024-01-30T06:02:22;13.20;99.90
1447;DHT22;717;51.522;7.266;2024-01-30T06:04:52;13.20;99.90
1447;DHT22;717;51.522;7.266;2024-01-30T06:07:25;13.20;99.90
1447;DHT22;717;51.522;7.266;2024-01-30T06:10:00;13.20;99.90
1447;DHT22;717;51.522;7.266;2024-01-30T06:12:30;13.20;99.90
1447;DHT22;717;51.522;7.266;2024-01-30T06:15:00;13.20;99.90
1447;DHT22;717;51.522;7.266;2024-01-30T06:17:30;13.20;99.90
1447;DHT22;717;51.522;7.266;2024-01-30T06:20:00;13.20;99.90
1447;DHT22;717;51.522;7.266;2024-01-30T06:22:33;13.20;99.90
1447;DHT22;717;51.522;7.266;2024-01-30T06:25:04;13.20;99.90
1447;DHT22;717;51.522;7.266;2024-01-30T06:27:34;13.20;99.90
1447;DHT22;717;51.522;7.266;2024-01-30T06:30:05;13.20;99.90
1447;DHT22;717;51.522;7.266;2024-01-30T06:32:35;13.10;99.90
1447;DHT22;717;51.522;7.266;2024-01-30T06:35:06;13.10;99.90
1447;DHT22;717;51.522;7.266;2024-01-30T06:37:40;13.10;99.90
1447;DHT22;717;51.522;7.266;2024-01-30T06:40:10;13.10;99.90
1447;DHT22;717;51.522;7.266;2024-01-30T06:42:41;13.10;99.90
1447;DHT22;717;51.522;7.266;2024-01-30T06:45:10;13.10;99.90
1447;DHT22;717;51.522;7.266;2024-01-30T06:47:40;13.10;99.90
1447;DHT22;717;51.522;7.266;2024-01-30T06:50:10;13.10;99.90
1447;DHT22;717;51.522;7.266;2024-01-30T06:52:43;13.10;99.90
1447;DHT22;717;51.522;7.266;2024-01-30T06:55:13;13.10;99.90
1447;DHT22;717;51.522;7.266;2024-01-30T06:57:43;13.10;99.90
1447;DHT22;717;51.522;7.266;2024-01-30T07:00:16;13.20;99.90
1447;DHT22;717;51.522;7.266;2024-01-30T07:02:46;13.20;99.90
1447;DHT22;717;51.522;7.266;2024-01-30T07:05:16;13.10;99.90
1447;DHT22;717;51.522;7.266;2024-01-30T07:07:51;13.10;99.90
1447;DHT22;717;51.522;7.266;2024-01-30T07:10:21;13.10;99.90
1447;DHT22;717;51.522;7.266;2024-01-30T07:12:51;13.10;99.90
1447;DHT22;717;51.522;7.266;2024-01-30T07:15:21;13.10;99.90
1447;DHT22;717;51.522;7.266;2024-01-30T07:17:51;13.20;99.90
1447;DHT22;717;51.522;7.266;2024-01-30T07:20:21;13.20;99.90
1447;DHT22;717;51.522;7.266;2024-01-30T07:22:54;13.20;99.90
1447;DHT22;717;51.522;7.266;2024-01-30T07:25:24;13.20;99.90
1447;DHT22;717;51.522;7.266;2024-01-30T07:27:56;13.10;99.90
1447;DHT22;717;51.522;7.266;2024-01-30T07:30:26;13.20;99.90
1447;DHT22;717;51.522;7.266;2024-01-30T07:32:55;13.10;99.90
1447;DHT22;717;51.522;7.266;2024-01-30T07:35:25;13.20;99.90
1447;DHT22;717;51.522;7.266;2024-01-30T07:37:58;13.20;99.90
1447;DHT22;717;51.522;7.266;2024-01-30T07:40:28;13.20;99.90
1447;DHT22;717;51.522;7.266;2024-01-30T07:43:00;13.20;99.90
1447;DHT22;717;51.522;7.266;2024-01-30T07:45:30;13.20;99.90
1447;DHT22;717;51.522;7.266;2024-01-30T07:48:01;13.20;99.90
1447;DHT22;717;51.522;7.266;2024-01-30T07:50:31;13.20;99.90
1447;DHT22;717;51.522;7.266;2024-01-30T07:53:04;13.20;99.90
1447;DHT22;717;51.522;7.266;2024-01-30T07:55:34;13.20;99.90
1447;DHT22;717;51.522;7.266;2024-01-30T07:58:04;13.20;99.90
1447;DHT22;717;51.522;7.266;2024-01-30T08:00:34;13.20;99.90
1447;DHT22;717;51.522;7.266;2024-01-30T08:03:04;13.20;99.90
1447;DHT22;717;51.522;7.266;2024-01-30T08:05:34;13.20;99.90
1447;DHT22;717;51.522;7.266;2024-01-30T08:08:09;13.20;99.90
1447;DHT22;717;51.522;7.266;2024-01-30T08:10:38;13.20;99.90
1447;DHT22;717;51.522;7.266;2024-01-30T08:13:08;13.20;99.90
1447;DHT22;717;51.522;7.266;2024-01-30T08:15:38;13.30;99.90
1447;DHT22;717;51.522;7.266;2024-01-30T08:18:08;13.30;99.90
1447;DHT22;717;51.522;7.266;2024-01-30T08:20:38;13.30;99.90
1447;DHT22;717;51.522;7.266;2024-01-30T08:23:11;13.30;99.90
1447;DHT22;717;51.522;7.266;2024-01-30T08:25:41;13.30;99.90
1447;DHT22;717;51.522;7.266;2024-01-30T08:28:11;13.30;99.90
1447;DHT22;717;51.522;7.266;2024-01-30T08:30:45;13.40;99.90
1447;DHT22;717;51.522;7.266;2024-01-30T08:33:15;13.40;99.90
1447;DHT22;717;51.522;7.266;2024-01-30T08:35:45;13.40;99.90
1447;DHT22;717;51.522;7.266;2024-01-30T08:38:17;13.40;99.90
1447;DHT22;717;51.522;7.266;2024-01-30T08:40:47;13.50;99.90
1447;DHT22;717;51.522;7.266;2024-01-30T08:43:17;13.50;99.90
1447;DHT22;717;51.522;7.266;2024-01-30T08:45:47;13.50;99.90
1447;DHT22;717;51.522;7.266;2024-01-30T08:48:17;13.60;99.90
1447;DHT22;717;51.522;7.266;2024-01-30T08:50:48;13.60;99.90
1447;DHT22;717;51.522;7.266;2024-01-30T08:53:21;13.60;99.90
1447;DHT22;717;51.522;7.266;2024-01-30T08:55:51;13.60;99.90
1447;DHT22;717;51.522;7.266;2024-01-30T08:58:21;13.70;99.90
1447;DHT22;717;51.522;7.266;2024-01-30T09:00:52;13.70;99.90
1447;DHT22;717;51.522;7.266;2024-01-30T09:03:22;13.70;99.90
1447;DHT22;717;51.522;7.266;2024-01-30T09:05:52;13.70;99.90
1447;DHT22;717;51.522;7.266;2024-01-30T09:08:24;13.70;99.90
1447;DHT22;717;51.522;7.266;2024-01-30T09:10:54;13.80;99.90
1447;DHT22;717;51.522;7.266;2024-01-30T09:13:24;13.80;99.90
1447;DHT22;717;51.522;7.266;2024-01-30T09:15:54;13.80;99.90
1447;DHT22;717;51.522;7.266;2024-01-30T09:18:24;13.80;99.90
1447;DHT22;717;51.522;7.266;2024-01-30T09:20:54;13.90;99.90
1447;DHT22;717;51.522;7.266;2024-01-30T09:23:27;13.80;99.90
1447;DHT22;717;51.522;7.266;2024-01-30T09:25:57;13.90;99.90
1447;DHT22;717;51.522;7.266;2024-01-30T09:28:28;13.90;99.90
1447;DHT22;717;51.522;7.266;2024-01-30T09:30:58;13.90;99.90
1447;DHT22;717;51.522;7.266;2024-01-30T09:33:28;13.90;99.90
1447;DHT22;717;51.522;7.266;2024-01-30T09:35:58;13.90;99.90
1447;DHT22;717;51.522;7.266;2024-01-30T09:38:31;14.00;99.90
1447;DHT22;717;51.522;7.266;2024-01-30T09:41:04;13.90;99.90
1447;DHT22;717;51.522;7.266;2024-01-30T09:43:37;14.00;99.90
1447;DHT22;717;51.522;7.266;2024-01-30T09:46:12;14.00;99.90
1447;DHT22;717;51.522;7.266;2024-01-30T09:48:42;14.00;99.90
1447;DHT22;717;51.522;7.266;2024-01-30T09:51:14;14.10;99.90
1447;DHT22;717;51.522;7.266;2024-01-30T09:53:48;14.10;99.90
1447;DHT22;717;51.522;7.266;2024-01-30T09:56:18;14.20;99.90
1447;DHT22;717;51.522;7.266;2024-01-30T09:58:49;14.20;99.90
1447;DHT22;717;51.522;7.266;2024-01-30T10:01:19;14.30;99.90
1447;DHT22;717;51.522;7.266;2024-01-30T10:03:50;14.30;99.90
1447;DHT22;717;51.522;7.266;2024-01-30T10:06:22;14.40;99.90
1447;DHT22;717;51.522;7.266;2024-01-30T10:08:56;14.40;99.90
1447;DHT22;717;51.522;7.266;2024-01-30T10:11:27;14.40;99.90
1447;DHT22;717;51.522;7.266;2024-01-30T10:13:57;14.40;99.90
1447;DHT22;717;51.522;7.266;2024-01-30T10:16:27;14.50;99.90
1447;DHT22;717;51.522;7.266;2024-01-30T10:18:57;14.60;99.90
1447;DHT22;717;51.522;7.266;2024-01-30T10:21:27;14.60;99.90
1447;DHT22;717;51.522;7.266;2024-01-30T10:24:00;14.60;99.90
1447;DHT22;717;51.522;7.266;2024-01-30T10:26:30;14.60;99.90
1447;DHT22;717;51.522;7.266;2024-01-30T10:29:01;14.70;99.90
1447;DHT22;717;51.522;7.266;2024-01-30T10:31:31;14.80;99.90
1447;DHT22;717;51.522;7.266;2024-01-30T10:34:02;14.80;99.90
1447;DHT22;717;51.522;7.266;2024-01-30T10:36:46;14.90;99.90
1447;DHT22;717;51.522;7.266;2024-01-30T10:39:22;14.90;99.90
1447;DHT22;717;51.522;7.266;2024-01-30T10:41:56;15.00;99.90
1447;DHT22;717;51.522;7.266;2024-01-30T10:44:30;15.00;99.90
1447;DHT22;717;51.522;7.266;2024-01-30T10:47:06;15.00;99.90
1447;DHT22;717;51.522;7.266;2024-01-30T10:49:41;15.10;99.90
1447;DHT22;717;51.522;7.266;2024-01-30T10:52:14;15.20;99.90
1447;DHT22;717;51.522;7.266;2024-01-30T10:54:49;15.20;99.90
1447;DHT22;717;51.522;7.266;2024-01-30T10:57:21;15.20;99.90
1447;DHT22;717;51.522;7.266;2024-01-30T10:59:55;15.30;99.90
1447;DHT22;717;51.522;7.266;2024-01-30T11:02:25;15.30;99.90
1447;DHT22;717;51.522;7.266;2024-01-30T11:04:57;15.30;99.90
1447;DHT22;717;51.522;7.266;2024-01-30T11:07:29;15.30;99.90
1447;DHT22;717;51.522;7.266;2024-01-30T11:10:05;15.30;99.90
1447;DHT22;717;51.522;7.266;2024-01-30T11:12:38;15.30;99.90
1447;DHT22;717;51.522;7.266;2024-01-30T11:15:12;15.30;99.90
1447;DHT22;717;51.522;7.266;2024-01-30T11:17:44;15.30;99.90
1447;DHT22;717;51.522;7.266;2024-01-30T11:20:15;15.40;99.90
1447;DHT22;717;51.522;7.266;2024-01-30T11:22:48;15.40;99.90
1447;DHT22;717;51.522;7.266;2024-01-30T11:25:21;15.40;99.90
1447;DHT22;717;51.522;7.266;2024-01-30T11:27:53;15.50;99.90
1447;DHT22;717;51.522;7.266;2024-01-30T11:30:24;15.50;99.90
1447;DHT22;717;51.522;7.266;2024-01-30T11:33:01;15.50;99.90
1447;DHT22;717;51.522;7.266;2024-01-30T11:35:34;15.50;99.90
1447;DHT22;717;51.522;7.266;2024-01-30T11:38:05;15.50;99.90
1447;DHT22;717;51.522;7.266;2024-01-30T11:40:38;15.50;99.90
1447;DHT22;717;51.522;7.266;2024-01-30T11:43:09;15.50;99.90
1447;DHT22;717;51.522;7.266;2024-01-30T11:45:39;15.40;99.90
1447;DHT22;717;51.522;7.266;2024-01-30T11:48:12;15.50;99.90
1447;DHT22;717;51.522;7.266;2024-01-30T11:50:42;15.50;99.90
1447;DHT22;717;51.522;7.266;2024-01-30T11:53:13;15.50;99.90
1447;DHT22;717;51.522;7.266;2024-01-30T11:55:52;15.50;99.90
1447;DHT22;717;51.522;7.266;2024-01-30T11:58:24;15.60;99.90
1447;DHT22;717;51.522;7.266;2024-01-30T12:00:55;15.60;99.90
1447;DHT22;717;51.522;7.266;2024-01-30T12:03:27;15.60;99.90
1447;DHT22;717;51.522;7.266;2024-01-30T12:05:57;15.60;99.90
1447;DHT22;717;51.522;7.266;2024-01-30T12:08:28;15.50;99.90
1447;DHT22;717;51.522;7.266;2024-01-30T12:11:00;15.50;99.90
1447;DHT22;717;51.522;7.266;2024-01-30T12:13:32;15.50;99.90
1447;DHT22;717;51.522;7.266;2024-01-30T12:16:03;15.50;99.90
1447;DHT22;717;51.522;7.266;2024-01-30T12:18:33;15.50;99.90
1447;DHT22;717;51.522;7.266;2024-01-30T12:21:03;15.50;99.90
1447;DHT22;717;51.522;7.266;2024-01-30T12:23:35;15.50;99.90
1447;DHT22;717;51.522;7.266;2024-01-30T12:26:07;15.50;99.90
1447;DHT22;717;51.522;7.266;2024-01-30T12:28:47;15.40;99.90
1447;DHT22;717;51.522;7.266;2024-01-30T12:31:17;15.50;99.90
1447;DHT22;717;51.522;7.266;2024-01-30T12:33:49;15.40;99.90
1447;DHT22;717;51.522;7.266;2024-01-30T12:36:19;15.40;99.90
1447;DHT22;717;51.522;7.266;2024-01-30T12:38:50;15.40;99.90
1447;DHT22;717;51.522;7.266;2024-01-30T12:41:22;15.40;99.90
1447;DHT22;717;51.522;7.266;2024-01-30T12:43:57;15.40;99.90
1447;DHT22;717;51.522;7.266;2024-01-30T12:46:28;15.40;99.90
1447;DHT22;717;51.522;7.266;2024-01-30T12:48:58;15.40;99.90
1447;DHT22;717;51.522;7.266;2024-01-30T12:51:28;15.40;99.90
1447;DHT22;717;51.522;7.266;2024-01-30T12:53:58;15.50;99.90
1447;DHT22;717;51.522;7.266;2024-01-30T12:56:31;15.50;99.90
1447;DHT22;717;51.522;7.266;2024-01-30T12:59:01;15.40;99.90
1447;DHT22;717;51.522;7.266;2024-01-30T13:01:31;15.40;99.90
1447;DHT22;717;51.522;7.266;2024-01-30T13:04:01;15.40;99.90
1447;DHT22;717;51.522;7.266;2024-01-30T13:06:31;15.40;99.90
1447;DHT22;717;51.522;7.266;2024-01-30T13:09:01;15.40;99.90
1447;DHT22;717;51.522;7.266;2024-01-30T13:11:35;15.40;99.90
1447;DHT22;717;51.522;7.266;2024-01-30T13:14:05;15.40;99.90
1447;DHT22;717;51.522;7.266;2024-01-30T13:16:35;15.40;99.90
1447;DHT22;717;51.522;7.266;2024-01-30T13:19:05;15.30;99.90
1447;DHT22;717;51.522;7.266;2024-01-30T13:21:35;15.30;99.90
1447;DHT22;717;51.522;7.266;2024-01-30T13:24:06;15.20;99.90
1447;DHT22;717;51.522;7.266;2024-01-30T13:26:39;15.30;99.90
1447;DHT22;717;51.522;7.266;2024-01-30T13:29:09;15.20;99.90
1447;DHT22;717;51.522;7.266;2024-01-30T13:31:39;15.20;99.90
1447;DHT22;717;51.522;7.266;2024-01-30T13:34:11;15.20;99.90
1447;DHT22;717;51.522;7.266;2024-01-30T13:36:41;15.20;99.90
1447;DHT22;717;51.522;7.266;2024-01-30T13:39:12;15.20;99.90
1447;DHT22;717;51.522;7.266;2024-01-30T13:41:44;15.10;99.90
1447;DHT22;717;51.522;7.266;2024-01-30T13:44:15;15.10;99.90
1447;DHT22;717;51.522;7.266;2024-01-30T13:46:46;15.10;99.90
1447;DHT22;717;51.522;7.266;2024-01-30T13:49:16;15.10;99.90
1447;DHT22;717;51.522;7.266;2024-01-30T13:51:46;15.10;99.90
1447;DHT22;717;51.522;7.266;2024-01-30T13:54:16;15.20;99.90
1447;DHT22;717;51.522;7.266;2024-01-30T13:56:48;15.20;99.90
1447;DHT22;717;51.522;7.266;2024-01-30T13:59:18;15.20;99.90
1447;DHT22;717;51.522;7.266;2024-01-30T14:01:51;15.20;99.90
1447;DHT22;717;51.522;7.266;2024-01-30T14:04:21;15.10;99.90
1447;DHT22;717;51.522;7.266;2024-01-30T14:06:52;15.10;99.90
1447;DHT22;717;51.522;7.266;2024-01-30T14:09:30;15.10;99.90
1447;DHT22;717;51.522;7.266;2024-01-30T14:12:04;15.10;99.90
1447;DHT22;717;51.522;7.266;2024-01-30T14:14:35;15.10;99.90
1447;DHT22;717;51.522;7.266;2024-01-30T14:17:05;15.10;99.90
1447;DHT22;717;51.522;7.266;2024-01-30T14:19:35;15.00;99.90
1447;DHT22;717;51.522;7.266;2024-01-30T14:22:06;15.10;99.90
1447;DHT22;717;51.522;7.266;2024-01-30T14:24:36;15.00;99.90
1447;DHT22;717;51.522;7.266;2024-01-30T14:27:10;15.10;99.90
1447;DHT22;717;51.522;7.266;2024-01-30T14:29:40;15.10;99.90
1447;DHT22;717;51.522;7.266;2024-01-30T14:32:10;15.10;99.90
1447;DHT22;717;51.522;7.266;2024-01-30T14:34:40;15.10;99.90
1447;DHT22;717;51.522;7.266;2024-01-30T14:37:11;15.10;99.90
1447;DHT22;717;51.522;7.266;2024-01-30T14:39:41;15.10;99.90
1447;DHT22;717;51.522;7.266;2024-01-30T14:42:14;15.10;99.90
1447;DHT22;717;51.522;7.266;2024-01-30T14:44:44;15.10;99.90
1447;DHT22;717;51.522;7.266;2024-01-30T14:47:14;15.20;99.90
1447;DHT22;717;51.522;7.266;2024-01-30T14:49:44;15.10;99.90
1447;DHT22;717;51.522;7.266;2024-01-30T14:52:14;15.10;99.90
1447;DHT22;717;51.522;7.266;2024-01-30T14:54:44;15.10;99.90
1447;DHT22;717;51.522;7.266;2024-01-30T14:57:16;15.20;99.90
1447;DHT22;717;51.522;7.266;2024-01-30T14:59:47;15.10;99.90
1447;DHT22;717;51.522;7.266;2024-01-30T15:02:17;15.20;99.90
1447;DHT22;717;51.522;7.266;2024-01-30T15:04:47;15.30;99.90
1447;DHT22;717;51.522;7.266;2024-01-30T15:07:17;15.20;99.90
1447;DHT22;717;51.522;7.266;2024-01-30T15:09:59;15.10;99.90
1447;DHT22;717;51.522;7.266;2024-01-30T15:12:33;15.10;99.90
1447;DHT22;717;51.522;7.266;2024-01-30T15:15:04;15.20;99.90
1447;DHT22;717;51.522;7.266;2024-01-30T15:17:35;15.20;99.90
1447;DHT22;717;51.522;7.266;2024-01-30T15:20:06;15.10;99.90
1447;DHT22;717;51.522;7.266;2024-01-30T15:22:37;15.10;99.90
1447;DHT22;717;51.522;7.266;2024-01-30T15:25:07;15.00;99.90
1447;DHT22;717;51.522;7.266;2024-01-30T15:27:40;15.10;99.90
1447;DHT22;717;51.522;7.266;2024-01-30T15:30:11;15.10;99.90
1447;DHT22;717;51.522;7.266;2024-01-30T15:32:41;15.10;99.90
1447;DHT22;717;51.522;7.266;2024-01-30T15:35:11;15.10;99.90
1447;DHT22;717;51.522;7.266;2024-01-30T15:37:42;15.00;99.90
1447;DHT22;717;51.522;7.266;2024-01-30T15:40:12;14.90;99.90
1447;DHT22;717;51.522;7.266;2024-01-30T15:42:45;14.90;99.90
1447;DHT22;717;51.522;7.266;2024-01-30T15:45:15;14.80;99.90
1447;DHT22;717;51.522;7.266;2024-01-30T15:47:46;14.90;99.90
1447;DHT22;717;51.522;7.266;2024-01-30T15:50:16;14.90;99.90
1447;DHT22;717;51.522;7.266;2024-01-30T15:52:46;14.90;99.90
1447;DHT22;717;51.522;7.266;2024-01-30T15:55:16;14.90;99.90
1447;DHT22;717;51.522;7.266;2024-01-30T15:57:50;14.80;99.90
1447;DHT22;717;51.522;7.266;2024-01-30T16:00:20;14.80;99.90
1447;DHT22;717;51.522;7.266;2024-01-30T16:02:49;14.60;99.90
1447;DHT22;717;51.522;7.266;2024-01-30T16:05:20;14.50;99.90
1447;DHT22;717;51.522;7.266;2024-01-30T16:07:50;14.50;99.90
1447;DHT22;717;51.522;7.266;2024-01-30T16:10:20;14.50;99.90
1447;DHT22;717;51.522;7.266;2024-01-30T16:12:53;14.40;99.90
1447;DHT22;717;51.522;7.266;2024-01-30T16:15:22;14.30;99.90
1447;DHT22;717;51.522;7.266;2024-01-30T16:17:52;14.20;99.90
1447;DHT22;717;51.522;7.266;2024-01-30T16:20:22;14.20;99.90
1447;DHT22;717;51.522;7.266;2024-01-30T16:22:53;14.30;99.90
1447;DHT22;717;51.522;7.266;2024-01-30T16:25:23;14.30;99.90
1447;DHT22;717;51.522;7.266;2024-01-30T16:27:55;14.20;99.90
1447;DHT22;717;51.522;7.266;2024-01-30T16:30:25;14.20;99.90
1447;DHT22;717;51.522;7.266;2024-01-30T16:32:55;14.30;99.90
1447;DHT22;717;51.522;7.266;2024-01-30T16:35:26;14.30;99.90
1447;DHT22;717;51.522;7.266;2024-01-30T16:38:12;14.20;99.90
1447;DHT22;717;51.522;7.266;2024-01-30T16:40:42;14.20;99.90